sensor_id;sensor_type;location;lat;lon;timestamp;pressure;altitude;pressure_sealevel;temperature;humidity
18201;BME280;9226;47.858;9.594;2024-03-07T00:01:57;95579.44;;;4.23;92.74
18201;BME280;9226;47.858;9.594;2024-03-07T00:04:22;95568.09;;;4.23;92.80
18201;BME280;9226;47.858;9.594;2024-03-07T00:06:47;95569.91;;;4.38;91.86
18201;BME280;9226;47.858;9.594;2024-03-07T00:09:13;95569.13;;;4.36;92.18
18201;BME280;9226;47.858;9.594;2024-03-07T00:11:40;95566.06;;;4.44;91.78
18201;BME280;9226;47.858;9.594;2024-03-07T00:14:06;95572.38;;;4.41;91.83
18201;BME280;9226;47.858;9.594;2024-03-07T00:16:31;95574.13;;;4.57;90.58
18201;BME280;9226;47.858;9.594;2024-03-07T00:18:58;95587.00;;;4.45;91.14
18201;BME280;9226;47.858;9.594;2024-03-07T00:21:24;95581.41;;;4.51;90.75
18201;BME280;9226;47.858;9.594;2024-03-07T00:23:49;95581.00;;;4.59;90.10
18201;BME280;9226;47.858;9.594;2024-03-07T00:26:14;95583.38;;;4.64;90.14
18201;BME280;9226;47.858;9.594;2024-03-07T00:28:40;95583.22;;;4.67;90.18
18201;BME280;9226;47.858;9.594;2024-03-07T00:31:05;95579.78;;;4.65;90.92
18201;BME280;9226;47.858;9.594;2024-03-07T00:33:32;95583.03;;;4.70;90.42
18201;BME280;9226;47.858;9.594;2024-03-07T00:35:58;95581.06;;;4.74;89.86
18201;BME280;9226;47.858;9.594;2024-03-07T00:38:23;95577.94;;;4.67;89.86
18201;BME280;9226;47.858;9.594;2024-03-07T00:40:49;95578.53;;;4.72;89.93
18201;BME280;9226;47.858;9.594;2024-03-07T00:43:14;95575.06;;;4.71;89.65
18201;BME280;9226;47.858;9.594;2024-03-07T00:45:40;95582.25;;;4.68;89.58
18201;BME280;9226;47.858;9.594;2024-03-07T00:48:05;95578.88;;;4.66;89.74
18201;BME280;9226;47.858;9.594;2024-03-07T00:50:30;95578.28;;;4.61;90.02
18201;BME280;9226;47.858;9.594;2024-03-07T00:52:57;95567.94;;;4.58;90.20
18201;BME280;9226;47.858;9.594;2024-03-07T00:55:22;95566.41;;;4.53;90.23
18201;BME280;9226;47.858;9.594;2024-03-07T00:57:48;95556.13;;;4.65;89.48
18201;BME280;9226;47.858;9.594;2024-03-07T01:00:14;95559.72;;;4.64;88.99
18201;BME280;9226;47.858;9.594;2024-03-07T01:02:42;95557.34;;;4.43;90.34
18201;BME280;9226;47.858;9.594;2024-03-07T01:05:11;95555.97;;;4.36;90.97
18201;BME280;9226;47.858;9.594;2024-03-07T01:07:38;95562.03;;;4.38;91.05
18201;BME280;9226;47.858;9.594;2024-03-07T01:10:04;95556.41;;;4.44;90.68
18201;BME280;9226;47.858;9.594;2024-03-07T01:12:31;95558.28;;;4.42;90.90
18201;BME280;9226;47.858;9.594;2024-03-07T01:14:57;95557.78;;;4.51;89.93
18201;BME280;9226;47.858;9.594;2024-03-07T01:17:23;95555.72;;;4.41;90.77
18201;BME280;9226;47.858;9.594;2024-03-07T01:19:49;95548.19;;;4.50;90.25
18201;BME280;9226;47.858;9.594;2024-03-07T01:22:14;95548.81;;;4.56;89.93
18201;BME280;9226;47.858;9.594;2024-03-07T01:24:40;95544.56;;;4.37;90.89
18201;BME280;9226;47.858;9.594;2024-03-07T01:27:05;95539.63;;;4.47;90.29
18201;BME280;9226;47.858;9.594;2024-03-07T01:29:31;95533.03;;;4.56;90.10
18201;BME280;9226;47.858;9.594;2024-03-07T01:31:56;95533.72;;;4.43;90.37
18201;BME280;9226;47.858;9.594;2024-03-07T01:34:21;95524.19;;;4.57;89.59
18201;BME280;9226;47.858;9.594;2024-03-07T01:36:47;95529.28;;;4.60;89.30
18201;BME280;9226;47.858;9.594;2024-03-07T01:39:12;95524.44;;;4.68;89.19
18201;BME280;9226;47.858;9.594;2024-03-07T01:41:37;95517.25;;;4.71;88.79
18201;BME280;9226;47.858;9.594;2024-03-07T01:44:03;95514.69;;;4.70;88.96
18201;BME280;9226;47.858;9.594;2024-03-07T01:46:29;95519.97;;;4.70;89.12
18201;BME280;9226;47.858;9.594;2024-03-07T01:48:55;95507.91;;;4.66;89.72
18201;BME280;9226;47.858;9.594;2024-03-07T01:51:21;95513.00;;;4.69;89.85
18201;BME280;9226;47.858;9.594;2024-03-07T01:53:47;95508.22;;;4.76;89.39
18201;BME280;9226;47.858;9.594;2024-03-07T01:56:12;95501.38;;;4.73;89.75
18201;BME280;9226;47.858;9.594;2024-03-07T01:58:38;95501.56;;;4.70;89.30
18201;BME280;9226;47.858;9.594;2024-03-07T02:01:05;95502.84;;;4.63;89.36
18201;BME280;9226;47.858;9.594;2024-03-07T02:03:30;95503.50;;;4.50;89.74
18201;BME280;9226;47.858;9.594;2024-03-07T02:05:56;95506.06;;;4.52;89.54
18201;BME280;9226;47.858;9.594;2024-03-07T02:08:21;95502.50;;;4.53;89.35
18201;BME280;9226;47.858;9.594;2024-03-07T02:10:47;95499.78;;;4.55;89.18
18201;BME280;9226;47.858;9.594;2024-03-07T02:13:14;95503.59;;;4.49;89.79
18201;BME280;9226;47.858;9.594;2024-03-07T02:15:39;95496.75;;;4.46;89.72
18201;BME280;9226;47.858;9.594;2024-03-07T02:18:05;95496.06;;;4.43;89.82
18201;BME280;9226;47.858;9.594;2024-03-07T02:20:30;95495.41;;;4.39;90.19
18201;BME280;9226;47.858;9.594;2024-03-07T02:22:56;95488.47;;;4.38;90.56
18201;BME280;9226;47.858;9.594;2024-03-07T02:25:21;95491.84;;;4.40;90.36
18201;BME280;9226;47.858;9.594;2024-03-07T02:27:46;95494.66;;;4.37;90.75
18201;BME280;9226;47.858;9.594;2024-03-07T02:30:12;95496.00;;;4.28;91.55
18201;BME280;9226;47.858;9.594;2024-03-07T02:32:38;95488.72;;;4.33;91.00
18201;BME280;9226;47.858;9.594;2024-03-07T02:35:05;95492.53;;;4.28;91.36
18201;BME280;9226;47.858;9.594;2024-03-07T02:37:31;95487.19;;;4.29;91.21
18201;BME280;9226;47.858;9.594;2024-03-07T02:39:56;95482.59;;;4.33;91.39
18201;BME280;9226;47.858;9.594;2024-03-07T02:42:21;95480.41;;;4.25;91.53
18201;BME280;9226;47.858;9.594;2024-03-07T02:44:47;95483.81;;;4.27;91.46
18201;BME280;9226;47.858;9.594;2024-03-07T02:47:12;95479.31;;;4.29;91.82
18201;BME280;9226;47.858;9.594;2024-03-07T02:49:38;95476.09;;;4.24;92.07
18201;BME280;9226;47.858;9.594;2024-03-07T02:52:03;95479.72;;;4.22;92.25
18201;BME280;9226;47.858;9.594;2024-03-07T02:54:32;95481.69;;;4.34;91.53
18201;BME280;9226;47.858;9.594;2024-03-07T02:56:58;95479.06;;;4.34;91.71
18201;BME280;9226;47.858;9.594;2024-03-07T02:59:23;95471.84;;;4.38;91.33
18201;BME280;9226;47.858;9.594;2024-03-07T03:01:48;95469.63;;;4.30;91.97
18201;BME280;9226;47.858;9.594;2024-03-07T03:04:14;95463.47;;;4.31;91.83
18201;BME280;9226;47.858;9.594;2024-03-07T03:06:39;95467.78;;;4.32;91.77
18201;BME280;9226;47.858;9.594;2024-03-07T03:09:05;95466.03;;;4.16;92.80
18201;BME280;9226;47.858;9.594;2024-03-07T03:11:30;95472.03;;;4.19;93.35
18201;BME280;9226;47.858;9.594;2024-03-07T03:13:55;95471.19;;;4.18;93.47
18201;BME280;9226;47.858;9.594;2024-03-07T03:16:20;95467.56;;;4.21;93.52
18201;BME280;9226;47.858;9.594;2024-03-07T03:18:46;95461.53;;;4.19;93.66
18201;BME280;9226;47.858;9.594;2024-03-07T03:21:13;95461.78;;;4.14;94.08
18201;BME280;9226;47.858;9.594;2024-03-07T03:23:40;95463.22;;;4.20;93.36
18201;BME280;9226;47.858;9.594;2024-03-07T03:26:05;95465.84;;;4.20;93.05
18201;BME280;9226;47.858;9.594;2024-03-07T03:28:31;95459.91;;;4.32;92.44
18201;BME280;9226;47.858;9.594;2024-03-07T03:30:57;95458.28;;;4.29;92.86
18201;BME280;9226;47.858;9.594;2024-03-07T03:33:22;95462.13;;;4.40;92.06
18201;BME280;9226;47.858;9.594;2024-03-07T03:35:48;95463.03;;;4.39;91.77
18201;BME280;9226;47.858;9.594;2024-03-07T03:38:13;95462.03;;;4.41;91.45
18201;BME280;9226;47.858;9.594;2024-03-07T03:40:39;95452.53;;;4.39;91.24
18201;BME280;9226;47.858;9.594;2024-03-07T03:43:05;95456.25;;;4.34;91.46
18201;BME280;9226;47.858;9.594;2024-03-07T03:45:30;95448.28;;;4.36;91.73
18201;BME280;9226;47.858;9.594;2024-03-07T03:47:59;95449.56;;;4.45;91.14
18201;BME280;9226;47.858;9.594;2024-03-07T03:50:24;95452.69;;;4.51;90.80
18201;BME280;9226;47.858;9.594;2024-03-07T03:52:50;95449.47;;;4.46;91.48
18201;BME280;9226;47.858;9.594;2024-03-07T03:55:15;95453.94;;;4.44;91.56
18201;BME280;9226;47.858;9.594;2024-03-07T03:57:44;95448.13;;;4.39;91.77
18201;BME280;9226;47.858;9.594;2024-03-07T04:00:12;95454.03;;;4.43;91.32
18201;BME280;9226;47.858;9.594;2024-03-07T04:02:44;95453.94;;;4.44;91.26
18201;BME280;9226;47.858;9.594;2024-03-07T04:05:13;95455.75;;;4.28;92.15
18201;BME280;9226;47.858;9.594;2024-03-07T04:07:39;95454.41;;;4.37;92.17
18201;BME280;9226;47.858;9.594;2024-03-07T04:10:05;95451.25;;;4.30;92.32
18201;BME280;9226;47.858;9.594;2024-03-07T04:12:35;95450.69;;;4.25;92.73
18201;BME280;9226;47.858;9.594;2024-03-07T04:15:03;95445.75;;;4.34;92.26
18201;BME280;9226;47.858;9.594;2024-03-07T04:17:29;95455.59;;;4.31;92.23
18201;BME280;9226;47.858;9.594;2024-03-07T04:19:55;95450.75;;;4.39;91.91
18201;BME280;9226;47.858;9.594;2024-03-07T04:22:20;95453.38;;;4.39;92.15
18201;BME280;9226;47.858;9.594;2024-03-07T04:24:47;95445.25;;;4.28;92.64
18201;BME280;9226;47.858;9.594;2024-03-07T04:27:19;95444.59;;;4.08;92.83
18201;BME280;9226;47.858;9.594;2024-03-07T04:29:44;95442.91;;;4.07;93.18
18201;BME280;9226;47.858;9.594;2024-03-07T04:32:09;95438.16;;;3.98;93.39
18201;BME280;9226;47.858;9.594;2024-03-07T04:34:35;95438.31;;;3.95;93.54
18201;BME280;9226;47.858;9.594;2024-03-07T04:37:01;95429.34;;;3.99;93.42
18201;BME280;9226;47.858;9.594;2024-03-07T04:39:27;95432.22;;;4.10;93.32
18201;BME280;9226;47.858;9.594;2024-03-07T04:42:01;95433.75;;;4.14;92.95
18201;BME280;9226;47.858;9.594;2024-03-07T04:44:30;95434.84;;;4.10;92.93
18201;BME280;9226;47.858;9.594;2024-03-07T04:46:57;95438.56;;;4.06;93.58
18201;BME280;9226;47.858;9.594;2024-03-07T04:49:24;95436.97;;;4.20;92.62
18201;BME280;9226;47.858;9.594;2024-03-07T04:51:54;95432.22;;;3.94;92.87
18201;BME280;9226;47.858;9.594;2024-03-07T04:54:21;95428.69;;;3.95;93.24
18201;BME280;9226;47.858;9.594;2024-03-07T04:56:47;95435.94;;;3.90;93.59
18201;BME280;9226;47.858;9.594;2024-03-07T04:59:14;95433.78;;;3.98;93.71
18201;BME280;9226;47.858;9.594;2024-03-07T05:01:40;95433.22;;;4.08;93.25
18201;BME280;9226;47.858;9.594;2024-03-07T05:04:06;95434.69;;;4.13;92.94
18201;BME280;9226;47.858;9.594;2024-03-07T05:06:32;95432.13;;;4.28;92.26
18201;BME280;9226;47.858;9.594;2024-03-07T05:09:04;95428.84;;;4.24;92.28
18201;BME280;9226;47.858;9.594;2024-03-07T05:11:30;95436.94;;;4.35;91.95
18201;BME280;9226;47.858;9.594;2024-03-07T05:13:56;95431.50;;;4.39;91.75
18201;BME280;9226;47.858;9.594;2024-03-07T05:16:23;95437.88;;;4.34;91.60
18201;BME280;9226;47.858;9.594;2024-03-07T05:18:49;95438.38;;;4.25;91.95
18201;BME280;9226;47.858;9.594;2024-03-07T05:21:15;95433.22;;;4.24;91.93
18201;BME280;9226;47.858;9.594;2024-03-07T05:24:10;95436.44;;;4.29;91.36
18201;BME280;9226;47.858;9.594;2024-03-07T05:26:36;95437.47;;;4.26;91.14
18201;BME280;9226;47.858;9.594;2024-03-07T05:29:08;95435.59;;;4.28;91.29
18201;BME280;9226;47.858;9.594;2024-03-07T05:31:35;95437.53;;;4.25;91.15
18201;BME280;9226;47.858;9.594;2024-03-07T05:34:06;95428.31;;;4.33;91.17
18201;BME280;9226;47.858;9.594;2024-03-07T05:36:35;95443.91;;;4.37;91.19
18201;BME280;9226;47.858;9.594;2024-03-07T05:39:01;95440.00;;;4.28;91.28
18201;BME280;9226;47.858;9.594;2024-03-07T05:41:34;95447.31;;;4.23;91.72
18201;BME280;9226;47.858;9.594;2024-03-07T05:44:00;95435.31;;;4.33;91.46
18201;BME280;9226;47.858;9.594;2024-03-07T05:46:26;95433.03;;;4.27;90.63
18201;BME280;9226;47.858;9.594;2024-03-07T05:48:51;95438.16;;;3.98;91.69
18201;BME280;9226;47.858;9.594;2024-03-07T05:51:24;95428.69;;;4.11;91.42
18201;BME280;9226;47.858;9.594;2024-03-07T05:53:50;95436.56;;;4.11;92.02
18201;BME280;9226;47.858;9.594;2024-03-07T05:56:16;95432.47;;;4.22;91.80
18201;BME280;9226;47.858;9.594;2024-03-07T05:58:41;95433.16;;;4.09;92.07
18201;BME280;9226;47.858;9.594;2024-03-07T06:01:06;95429.34;;;4.15;91.30
18201;BME280;9226;47.858;9.594;2024-03-07T06:03:36;95428.84;;;4.24;91.11
18201;BME280;9226;47.858;9.594;2024-03-07T06:06:01;95438.13;;;4.30;91.71
18201;BME280;9226;47.858;9.594;2024-03-07T06:08:27;95429.97;;;4.34;91.21
18201;BME280;9226;47.858;9.594;2024-03-07T06:10:53;95427.88;;;4.41;90.81
18201;BME280;9226;47.858;9.594;2024-03-07T06:13:18;95423.75;;;4.21;90.32
18201;BME280;9226;47.858;9.594;2024-03-07T06:15:46;95432.28;;;4.25;90.47
18201;BME280;9226;47.858;9.594;2024-03-07T06:18:13;95429.50;;;4.28;90.63
18201;BME280;9226;47.858;9.594;2024-03-07T06:20:42;95429.38;;;4.45;90.41
18201;BME280;9226;47.858;9.594;2024-03-07T06:23:08;95421.81;;;4.55;89.57
18201;BME280;9226;47.858;9.594;2024-03-07T06:25:36;95424.66;;;4.66;89.63
18201;BME280;9226;47.858;9.594;2024-03-07T06:28:06;95425.00;;;4.76;89.23
18201;BME280;9226;47.858;9.594;2024-03-07T06:30:38;95428.94;;;4.83;88.28
18201;BME280;9226;47.858;9.594;2024-03-07T06:33:05;95427.84;;;4.87;88.24
18201;BME280;9226;47.858;9.594;2024-03-07T06:35:30;95422.78;;;4.99;88.07
18201;BME280;9226;47.858;9.594;2024-03-07T06:37:55;95425.22;;;5.02;87.70
18201;BME280;9226;47.858;9.594;2024-03-07T06:40:21;95421.75;;;5.01;87.36
18201;BME280;9226;47.858;9.594;2024-03-07T06:42:50;95419.78;;;5.05;87.24
18201;BME280;9226;47.858;9.594;2024-03-07T06:45:18;95427.06;;;4.85;87.01
18201;BME280;9226;47.858;9.594;2024-03-07T06:47:43;95418.63;;;4.95;87.63
18201;BME280;9226;47.858;9.594;2024-03-07T06:50:09;95420.50;;;4.93;87.60
18201;BME280;9226;47.858;9.594;2024-03-07T06:52:35;95420.31;;;4.96;87.49
18201;BME280;9226;47.858;9.594;2024-03-07T06:55:01;95417.66;;;4.81;87.84
18201;BME280;9226;47.858;9.594;2024-03-07T06:57:29;95418.22;;;4.72;88.56
18201;BME280;9226;47.858;9.594;2024-03-07T06:59:54;95420.41;;;4.80;88.40
18201;BME280;9226;47.858;9.594;2024-03-07T07:02:20;95420.09;;;4.70;87.31
18201;BME280;9226;47.858;9.594;2024-03-07T07:04:45;95414.88;;;4.54;87.39
18201;BME280;9226;47.858;9.594;2024-03-07T07:07:14;95419.13;;;4.71;87.79
18201;BME280;9226;47.858;9.594;2024-03-07T07:09:40;95414.53;;;4.60;87.88
18201;BME280;9226;47.858;9.594;2024-03-07T07:12:06;95414.97;;;4.52;87.79
18201;BME280;9226;47.858;9.594;2024-03-07T07:14:31;95413.19;;;4.53;87.95
18201;BME280;9226;47.858;9.594;2024-03-07T07:16:57;95409.09;;;4.47;88.59
18201;BME280;9226;47.858;9.594;2024-03-07T07:19:24;95416.41;;;4.42;88.34
18201;BME280;9226;47.858;9.594;2024-03-07T07:21:49;95408.38;;;4.45;89.71
18201;BME280;9226;47.858;9.594;2024-03-07T07:24:22;95405.66;;;4.47;89.25
18201;BME280;9226;47.858;9.594;2024-03-07T07:26:49;95409.28;;;4.44;89.96
18201;BME280;9226;47.858;9.594;2024-03-07T07:29:15;95410.63;;;4.51;89.84
18201;BME280;9226;47.858;9.594;2024-03-07T07:31:40;95405.50;;;4.64;89.47
18201;BME280;9226;47.858;9.594;2024-03-07T07:34:06;95414.75;;;4.71;88.21
18201;BME280;9226;47.858;9.594;2024-03-07T07:36:31;95410.09;;;4.61;88.29
18201;BME280;9226;47.858;9.594;2024-03-07T07:38:57;95407.47;;;4.30;86.35
18201;BME280;9226;47.858;9.594;2024-03-07T07:41:23;95406.16;;;4.38;87.88
18201;BME280;9226;47.858;9.594;2024-03-07T07:43:49;95414.75;;;4.41;87.68
18201;BME280;9226;47.858;9.594;2024-03-07T07:46:16;95404.38;;;4.54;87.79
18201;BME280;9226;47.858;9.594;2024-03-07T07:48:42;95399.41;;;4.64;87.80
18201;BME280;9226;47.858;9.594;2024-03-07T07:51:07;95407.00;;;4.54;87.37
18201;BME280;9226;47.858;9.594;2024-03-07T07:53:33;95414.97;;;4.52;86.98
18201;BME280;9226;47.858;9.594;2024-03-07T07:55:58;95410.81;;;4.48;86.58
18201;BME280;9226;47.858;9.594;2024-03-07T07:58:23;95413.13;;;4.39;87.67
18201;BME280;9226;47.858;9.594;2024-03-07T08:00:49;95408.97;;;4.34;86.72
18201;BME280;9226;47.858;9.594;2024-03-07T08:03:14;95416.75;;;4.36;87.06
18201;BME280;9226;47.858;9.594;2024-03-07T08:05:43;95407.25;;;4.49;86.62
18201;BME280;9226;47.858;9.594;2024-03-07T08:08:10;95410.63;;;4.51;86.74
18201;BME280;9226;47.858;9.594;2024-03-07T08:10:41;95409.28;;;4.44;86.35
18201;BME280;9226;47.858;9.594;2024-03-07T08:13:07;95407.66;;;4.58;86.08
18201;BME280;9226;47.858;9.594;2024-03-07T08:15:33;95403.38;;;4.71;86.54
18201;BME280;9226;47.858;9.594;2024-03-07T08:17:59;95402.41;;;4.58;85.22
18201;BME280;9226;47.858;9.594;2024-03-07T08:20:26;95397.31;;;4.55;87.06
18201;BME280;9226;47.858;9.594;2024-03-07T08:22:53;95401.09;;;4.65;88.13
18201;BME280;9226;47.858;9.594;2024-03-07T08:25:26;95402.16;;;4.77;87.03
18201;BME280;9226;47.858;9.594;2024-03-07T08:28:01;95401.34;;;4.76;86.42
18201;BME280;9226;47.858;9.594;2024-03-07T08:30:26;95395.97;;;4.63;86.00
18201;BME280;9226;47.858;9.594;2024-03-07T08:32:55;95396.69;;;4.65;85.92
18201;BME280;9226;47.858;9.594;2024-03-07T08:35:21;95396.34;;;4.41;84.89
18201;BME280;9226;47.858;9.594;2024-03-07T08:37:52;95394.31;;;4.46;85.45
18201;BME280;9226;47.858;9.594;2024-03-07T08:40:28;95392.56;;;4.61;85.84
18201;BME280;9226;47.858;9.594;2024-03-07T08:42:58;95394.16;;;4.64;85.64
18201;BME280;9226;47.858;9.594;2024-03-07T08:45:25;95385.88;;;4.56;84.76
18201;BME280;9226;47.858;9.594;2024-03-07T08:47:53;95391.53;;;4.64;85.53
18201;BME280;9226;47.858;9.594;2024-03-07T08:50:22;95386.22;;;4.80;85.41
18201;BME280;9226;47.858;9.594;2024-03-07T08:52:48;95390.22;;;4.71;84.11
18201;BME280;9226;47.858;9.594;2024-03-07T08:55:15;95390.03;;;4.74;84.61
18201;BME280;9226;47.858;9.594;2024-03-07T08:57:42;95386.56;;;4.74;83.09
18201;BME280;9226;47.858;9.594;2024-03-07T09:00:09;95389.69;;;4.80;82.62
18201;BME280;9226;47.858;9.594;2024-03-07T09:02:37;95377.06;;;5.01;82.27
18201;BME280;9226;47.858;9.594;2024-03-07T09:05:04;95382.97;;;5.05;82.08
18201;BME280;9226;47.858;9.594;2024-03-07T09:07:30;95379.19;;;5.09;82.79
18201;BME280;9226;47.858;9.594;2024-03-07T09:09:56;95376.47;;;5.11;82.60
18201;BME280;9226;47.858;9.594;2024-03-07T09:12:21;95378.91;;;5.28;82.46
18201;BME280;9226;47.858;9.594;2024-03-07T09:14:47;95385.78;;;5.16;81.91
18201;BME280;9226;47.858;9.594;2024-03-07T09:17:12;95378.66;;;5.47;82.98
18201;BME280;9226;47.858;9.594;2024-03-07T09:19:38;95380.59;;;5.58;82.44
18201;BME280;9226;47.858;9.594;2024-03-07T09:22:03;95382.09;;;5.62;80.97
18201;BME280;9226;47.858;9.594;2024-03-07T09:24:30;95374.06;;;5.92;81.21
18201;BME280;9226;47.858;9.594;2024-03-07T09:26:56;95381.41;;;6.02;81.91
18201;BME280;9226;47.858;9.594;2024-03-07T09:29:22;95370.88;;;6.02;80.11
18201;BME280;9226;47.858;9.594;2024-03-07T09:31:51;95375.88;;;6.19;80.21
18201;BME280;9226;47.858;9.594;2024-03-07T09:34:18;95365.50;;;6.30;80.15
18201;BME280;9226;47.858;9.594;2024-03-07T09:36:44;95364.59;;;6.44;79.83
18201;BME280;9226;47.858;9.594;2024-03-07T09:39:09;95363.19;;;6.39;77.76
18201;BME280;9226;47.858;9.594;2024-03-07T09:41:37;95360.53;;;6.26;78.64
18201;BME280;9226;47.858;9.594;2024-03-07T09:44:04;95363.06;;;6.27;79.19
18201;BME280;9226;47.858;9.594;2024-03-07T09:46:31;95364.34;;;6.34;77.71
18201;BME280;9226;47.858;9.594;2024-03-07T09:48:58;95366.72;;;6.52;78.92
18201;BME280;9226;47.858;9.594;2024-03-07T09:51:24;95358.19;;;6.48;77.56
18201;BME280;9226;47.858;9.594;2024-03-07T09:53:50;95364.09;;;6.52;77.85
18201;BME280;9226;47.858;9.594;2024-03-07T09:56:19;95358.94;;;6.63;76.78
18201;BME280;9226;47.858;9.594;2024-03-07T09:58:50;95354.59;;;6.62;77.02
18201;BME280;9226;47.858;9.594;2024-03-07T10:01:17;95357.50;;;6.72;76.94
18201;BME280;9226;47.858;9.594;2024-03-07T10:03:47;95350.31;;;6.74;76.94
18201;BME280;9226;47.858;9.594;2024-03-07T10:06:13;95356.22;;;6.78;76.04
18201;BME280;9226;47.858;9.594;2024-03-07T10:08:40;95352.22;;;6.85;75.87
18201;BME280;9226;47.858;9.594;2024-03-07T10:11:07;95345.66;;;6.78;75.27
18201;BME280;9226;47.858;9.594;2024-03-07T10:13:34;95337.84;;;7.02;76.17
18201;BME280;9226;47.858;9.594;2024-03-07T10:16:01;95345.03;;;6.87;74.96
18201;BME280;9226;47.858;9.594;2024-03-07T10:18:27;95351.25;;;6.86;75.03
18201;BME280;9226;47.858;9.594;2024-03-07T10:20:56;95342.91;;;7.18;76.27
18201;BME280;9226;47.858;9.594;2024-03-07T10:23:24;95348.41;;;7.40;75.61
18201;BME280;9226;47.858;9.594;2024-03-07T10:25:50;95344.13;;;7.64;75.08
18201;BME280;9226;47.858;9.594;2024-03-07T10:28:16;95339.47;;;7.67;73.24
18201;BME280;9226;47.858;9.594;2024-03-07T10:30:43;95341.03;;;7.70;73.41
18201;BME280;9226;47.858;9.594;2024-03-07T10:33:12;95334.44;;;7.51;73.28
18201;BME280;9226;47.858;9.594;2024-03-07T10:35:38;95340.38;;;7.42;72.58
18201;BME280;9226;47.858;9.594;2024-03-07T10:38:03;95340.19;;;7.32;72.65
18201;BME280;9226;47.858;9.594;2024-03-07T10:40:32;95340.19;;;7.32;73.12
18201;BME280;9226;47.858;9.594;2024-03-07T10:42:58;95336.50;;;7.22;74.15
18201;BME280;9226;47.858;9.594;2024-03-07T10:45:29;95333.34;;;7.17;72.43
18201;BME280;9226;47.858;9.594;2024-03-07T10:47:56;95328.59;;;6.96;74.33
18201;BME280;9226;47.858;9.594;2024-03-07T10:53:16;95322.47;;;7.09;74.42
18201;BME280;9226;47.858;9.594;2024-03-07T10:55:56;95323.31;;;6.96;74.23
18201;BME280;9226;47.858;9.594;2024-03-07T10:59:30;95314.88;;;6.91;74.16
18201;BME280;9226;47.858;9.594;2024-03-07T11:01:32;95320.38;;;7.01;74.53
18201;BME280;9226;47.858;9.594;2024-03-07T11:04:00;95318.97;;;6.82;74.20
18201;BME280;9226;47.858;9.594;2024-03-07T11:06:31;95313.91;;;6.92;76.45
18201;BME280;9226;47.858;9.594;2024-03-07T11:09:00;95317.28;;;7.20;75.83
18201;BME280;9226;47.858;9.594;2024-03-07T11:11:26;95308.59;;;7.43;75.28
18201;BME280;9226;47.858;9.594;2024-03-07T11:13:54;95301.16;;;7.61;74.43
18201;BME280;9226;47.858;9.594;2024-03-07T11:16:21;95306.84;;;7.18;73.07
18201;BME280;9226;47.858;9.594;2024-03-07T11:19:17;95302.31;;;7.07;74.72
18201;BME280;9226;47.858;9.594;2024-03-07T11:21:43;95298.16;;;7.42;74.63
18201;BME280;9226;47.858;9.594;2024-03-07T11:24:08;95292.34;;;7.37;74.60
18201;BME280;9226;47.858;9.594;2024-03-07T11:26:34;95286.13;;;7.62;74.91
18201;BME280;9226;47.858;9.594;2024-03-07T11:28:59;95287.19;;;7.35;72.35
18201;BME280;9226;47.858;9.594;2024-03-07T11:31:26;95281.22;;;7.45;73.18
18201;BME280;9226;47.858;9.594;2024-03-07T11:34:14;95282.31;;;7.42;72.34
18201;BME280;9226;47.858;9.594;2024-03-07T11:36:44;95271.97;;;7.39;72.36
18201;BME280;9226;47.858;9.594;2024-03-07T11:39:42;95269.56;;;7.60;73.45
18201;BME280;9226;47.858;9.594;2024-03-07T11:42:28;95271.06;;;7.64;73.86
18201;BME280;9226;47.858;9.594;2024-03-07T11:44:57;95266.31;;;7.81;73.90
18201;BME280;9226;47.858;9.594;2024-03-07T11:47:34;95257.47;;;7.82;73.43
18201;BME280;9226;47.858;9.594;2024-03-07T11:50:00;95260.28;;;7.67;72.00
18201;BME280;9226;47.858;9.594;2024-03-07T11:52:27;95266.22;;;7.58;72.21
18201;BME280;9226;47.858;9.594;2024-03-07T11:54:53;95264.94;;;7.51;72.94
18201;BME280;9226;47.858;9.594;2024-03-07T11:57:19;95267.09;;;7.46;73.04
18201;BME280;9226;47.858;9.594;2024-03-07T11:59:45;95259.50;;;7.41;72.55
18201;BME280;9226;47.858;9.594;2024-03-07T12:02:17;95251.59;;;7.41;74.18
18201;BME280;9226;47.858;9.594;2024-03-07T12:04:43;95255.75;;;7.56;74.14
18201;BME280;9226;47.858;9.594;2024-03-07T12:07:09;95252.38;;;7.17;74.00
18201;BME280;9226;47.858;9.594;2024-03-07T12:09:37;95247.13;;;7.04;73.99
18201;BME280;9226;47.858;9.594;2024-03-07T12:12:04;95240.34;;;7.26;75.06
18201;BME280;9226;47.858;9.594;2024-03-07T12:14:29;95245.91;;;7.34;74.63
18201;BME280;9226;47.858;9.594;2024-03-07T12:16:55;95242.91;;;7.15;74.11
18201;BME280;9226;47.858;9.594;2024-03-07T12:19:22;95241.63;;;7.07;74.76
18201;BME280;9226;47.858;9.594;2024-03-07T12:21:48;95242.31;;;7.22;75.13
18201;BME280;9226;47.858;9.594;2024-03-07T12:24:14;95240.16;;;7.03;73.09
18201;BME280;9226;47.858;9.594;2024-03-07T12:26:43;95239.00;;;7.07;72.57
18201;BME280;9226;47.858;9.594;2024-03-07T12:29:09;95235.59;;;7.18;71.85
18201;BME280;9226;47.858;9.594;2024-03-07T12:31:39;95236.56;;;7.04;71.48
18201;BME280;9226;47.858;9.594;2024-03-07T12:34:04;95239.34;;;6.90;71.74
18201;BME280;9226;47.858;9.594;2024-03-07T12:36:30;95246.19;;;6.80;71.28
18201;BME280;9226;47.858;9.594;2024-03-07T12:39:03;95243.34;;;6.83;71.64
18201;BME280;9226;47.858;9.594;2024-03-07T12:41:49;95248.00;;;6.79;70.71
18201;BME280;9226;47.858;9.594;2024-03-07T12:44:18;95239.97;;;6.81;71.75
18201;BME280;9226;47.858;9.594;2024-03-07T12:46:46;95244.72;;;6.76;71.77
18201;BME280;9226;47.858;9.594;2024-03-07T12:49:12;95238.19;;;6.94;72.26
18201;BME280;9226;47.858;9.594;2024-03-07T12:51:40;95240.56;;;6.97;71.81
18201;BME280;9226;47.858;9.594;2024-03-07T12:54:07;95241.19;;;7.14;71.32
18201;BME280;9226;47.858;9.594;2024-03-07T12:56:37;95239.56;;;6.87;71.65
18201;BME280;9226;47.858;9.594;2024-03-07T12:59:04;95236.91;;;7.00;72.15
18201;BME280;9226;47.858;9.594;2024-03-07T13:01:30;95230.34;;;7.05;71.18
18201;BME280;9226;47.858;9.594;2024-03-07T13:03:58;95238.69;;;7.12;71.57
18201;BME280;9226;47.858;9.594;2024-03-07T13:06:24;95239.03;;;6.82;70.99
18201;BME280;9226;47.858;9.594;2024-03-07T13:08:55;95241.69;;;6.69;72.03
18201;BME280;9226;47.858;9.594;2024-03-07T13:11:22;95243.47;;;6.68;71.92
18201;BME280;9226;47.858;9.594;2024-03-07T13:13:48;95246.09;;;6.68;72.76
18201;BME280;9226;47.858;9.594;2024-03-07T13:16:13;95240.31;;;6.50;72.91
18201;BME280;9226;47.858;9.594;2024-03-07T13:18:40;95244.50;;;6.53;71.96
18201;BME280;9226;47.858;9.594;2024-03-07T13:21:05;95240.91;;;6.28;72.96
18201;BME280;9226;47.858;9.594;2024-03-07T13:23:32;95238.69;;;6.22;73.51
18201;BME280;9226;47.858;9.594;2024-03-07T13:25:59;95232.47;;;6.10;72.94